Time;durP1;ratioP1;P1;durP2;ratioP2;P2;SDS_P1;SDS_P2;PMS_P1;PMS_P2;Temp;Humidity;BMP_temperature;BMP_pressure;BME280_temperature;BME280_humidity;BME280_pressure;Samples;Min_cycle;Max_cycle;Signal;HPM_P1;HPM_P2
2021/09/30 00:01:43;;;;;;;4.63;1.25;;;;;;;;;;5075223;28;20452;-87
2021/09/30 00:04:09;;;;;;;2.95;0.70;;;;;;;;;;5077315;28;20031;-87
2021/09/30 00:06:34;;;;;;;4.07;0.80;;;;;;;;;;5094717;28;20020;-87
2021/09/30 00:09:00;;;;;;;3.40;0.90;;;;;;;;;;5077007;28;20541;-87
2021/09/30 00:11:27;;;;;;;1.58;0.85;;;;;;;;;;5110764;28;20106;-87
2021/09/30 00:14:05;;;;;;;4.20;0.80;;;;;;;;;;5095486;28;20020;-87
2021/09/30 00:32:51;;;;;;;3.58;1.00;;;;;;;;;;5095272;28;20024;-87
2021/09/30 00:40:53;;;;;;;5.45;1.00;;;;;;;;;;5094717;28;20433;-87
2021/09/30 00:46:00;;;;;;;3.65;1.00;;;;;;;;;;5094046;28;20525;-87
2021/09/30 01:22:36;;;;;;;2.83;0.95;;;;;;;;;;5094195;28;20078;-87
2021/09/30 01:30:00;;;;;;;2.42;0.90;;;;;;;;;;5093939;28;20035;-87
2021/09/30 02:22:15;;;;;;;6.43;0.93;;;;;;;;;;5093063;28;20032;-86
2021/09/30 02:30:22;;;;;;;5.10;0.73;;;;;;;;;;5092908;28;20475;-87
2021/09/30 02:59:51;;;;;;;1.65;0.70;;;;;;;;;;5092321;28;20047;-86
2021/09/30 03:02:17;;;;;;;2.03;0.80;;;;;;;;;;5074181;28;20428;-87
2021/09/30 03:04:43;;;;;;;3.65;1.08;;;;;;;;;;5073290;28;20115;-87
2021/09/30 03:07:10;;;;;;;3.30;0.98;;;;;;;;;;5091877;28;20024;-87
2021/09/30 03:09:40;;;;;;;2.47;1.05;;;;;;;;;;5091887;28;20027;-87
2021/09/30 03:12:07;;;;;;;3.13;0.70;;;;;;;;;;5091604;28;20016;-87
2021/09/30 03:14:39;;;;;;;5.43;1.00;;;;;;;;;;5073199;28;20017;-87
2021/09/30 03:17:05;;;;;;;7.72;1.02;;;;;;;;;;5073744;28;20023;-87
2021/09/30 03:19:37;;;;;;;2.75;0.82;;;;;;;;;;5073787;28;20463;-87
2021/09/30 03:24:38;;;;;;;2.80;0.80;;;;;;;;;;5078415;28;20489;-87
2021/09/30 03:27:03;;;;;;;4.38;1.10;;;;;;;;;;5073897;28;20521;-87
2021/09/30 03:29:29;;;;;;;2.90;0.77;;;;;;;;;;5073819;28;20016;-87
2021/09/30 03:31:55;;;;;;;3.38;0.90;;;;;;;;;;5073823;28;20486;-87
2021/09/30 03:34:20;;;;;;;4.72;0.88;;;;;;;;;;5073426;28;20016;-87
2021/09/30 03:36:45;;;;;;;5.50;1.15;;;;;;;;;;5075542;28;20103;-87
2021/09/30 03:39:15;;;;;;;4.05;1.00;;;;;;;;;;5077548;28;20496;-87
2021/09/30 03:41:42;;;;;;;2.70;0.98;;;;;;;;;;5077466;28;20468;-87
2021/09/30 03:44:07;;;;;;;3.45;1.10;;;;;;;;;;5077000;28;20072;-87
2021/09/30 03:46:33;;;;;;;4.50;1.13;;;;;;;;;;5077290;28;20023;-87
2021/09/30 03:48:58;;;;;;;3.80;1.10;;;;;;;;;;5095934;28;20027;-87
2021/09/30 03:54:26;;;;;;;2.13;0.98;;;;;;;;;;5095404;28;20028;-87
2021/09/30 03:57:04;;;;;;;4.15;1.00;;;;;;;;;;5077204;28;20016;-86
2021/09/30 03:59:30;;;;;;;7.55;1.00;;;;;;;;;;5076841;28;20031;-87
2021/09/30 04:01:56;;;;;;;4.88;1.20;;;;;;;;;;5095252;28;20012;-87
2021/09/30 04:04:22;;;;;;;3.92;0.90;;;;;;;;;;5094830;28;20020;-87
2021/09/30 04:06:48;;;;;;;1.50;0.80;;;;;;;;;;5095013;28;20012;-87
2021/09/30 04:09:14;;;;;;;7.82;1.45;;;;;;;;;;5095245;28;20543;-87
2021/09/30 04:11:41;;;;;;;3.38;0.90;;;;;;;;;;5077090;28;20016;-87
2021/09/30 04:14:07;;;;;;;6.88;0.90;;;;;;;;;;5094752;28;20097;-87
2021/09/30 04:16:32;;;;;;;5.55;1.08;;;;;;;;;;5076794;28;20020;-87
2021/09/30 04:18:57;;;;;;;4.43;1.23;;;;;;;;;;5094924;28;20020;-86
2021/09/30 04:21:22;;;;;;;5.15;1.00;;;;;;;;;;5076985;28;20161;-87
2021/09/30 04:23:47;;;;;;;3.03;0.95;;;;;;;;;;5094920;28;20077;-87
2021/09/30 04:26:13;;;;;;;8.02;0.95;;;;;;;;;;5076189;28;20102;-87
2021/09/30 04:28:38;;;;;;;4.25;1.08;;;;;;;;;;5076642;28;20019;-87
2021/09/30 04:31:03;;;;;;;3.30;1.00;;;;;;;;;;5076558;28;20026;-87
2021/09/30 04:33:28;;;;;;;3.70;1.00;;;;;;;;;;5076882;28;20035;-87
2021/09/30 04:35:54;;;;;;;7.13;1.02;;;;;;;;;;5094272;28;20008;-87
2021/09/30 04:38:19;;;;;;;2.78;0.95;;;;;;;;;;5095035;28;20039;-87
2021/09/30 04:40:44;;;;;;;1.88;0.90;;;;;;;;;;5076790;28;20032;-86
2021/09/30 04:43:09;;;;;;;4.32;0.93;;;;;;;;;;5076486;28;20394;-87
2021/09/30 04:45:35;;;;;;;4.30;0.90;;;;;;;;;;5076154;28;21192;-87
2021/09/30 04:48:00;;;;;;;3.85;1.17;;;;;;;;;;5076392;28;20024;-87
2021/09/30 04:50:25;;;;;;;4.63;1.23;;;;;;;;;;5076165;28;20468;-87
2021/09/30 04:52:52;;;;;;;1.60;0.90;;;;;;;;;;5075858;28;20471;-87
2021/09/30 04:55:17;;;;;;;3.50;1.00;;;;;;;;;;5093918;28;20016;-87
2021/09/30 04:57:42;;;;;;;1.45;0.80;;;;;;;;;;5075994;28;20380;-87
2021/09/30 05:00:08;;;;;;;6.35;1.00;;;;;;;;;;5076081;28;20115;-87
2021/09/30 05:02:33;;;;;;;5.80;1.83;;;;;;;;;;5076015;28;20028;-87
2021/09/30 05:04:58;;;;;;;3.05;0.98;;;;;;;;;;5075845;28;20106;-86
2021/09/30 05:07:24;;;;;;;3.57;1.27;;;;;;;;;;5075931;28;20121;-87
2021/09/30 05:09:51;;;;;;;2.53;1.10;;;;;;;;;;5075786;28;20495;-87
2021/09/30 05:12:17;;;;;;;3.38;1.15;;;;;;;;;;5076031;28;20020;-87
2021/09/30 05:14:42;;;;;;;1.93;0.83;;;;;;;;;;5075210;28;20022;-87
2021/09/30 05:17:07;;;;;;;4.10;0.90;;;;;;;;;;5075220;28;20020;-86
2021/09/30 05:19:33;;;;;;;3.03;1.00;;;;;;;;;;5093922;28;20012;-87
2021/09/30 05:21:58;;;;;;;3.97;0.90;;;;;;;;;;5076193;28;20066;-87
2021/09/30 05:24:23;;;;;;;3.03;1.20;;;;;;;;;;5075222;28;20015;-87
2021/09/30 05:26:48;;;;;;;4.35;1.45;;;;;;;;;;5075997;28;20020;-87
2021/09/30 05:29:13;;;;;;;2.60;1.50;;;;;;;;;;5075488;28;20027;-87
2021/09/30 05:31:39;;;;;;;5.88;2.30;;;;;;;;;;5093367;28;20024;-87
2021/09/30 05:34:04;;;;;;;10.63;3.10;;;;;;;;;;5075053;28;20068;-87
2021/09/30 05:36:29;;;;;;;8.45;3.15;;;;;;;;;;5093477;28;20024;-87
2021/09/30 05:38:54;;;;;;;11.13;2.87;;;;;;;;;;5075063;28;20035;-87
2021/09/30 05:41:20;;;;;;;10.07;2.90;;;;;;;;;;5075077;28;20099;-87
2021/09/30 05:43:50;;;;;;;5.78;1.80;;;;;;;;;;5075240;28;20028;-87
2021/09/30 05:46:18;;;;;;;6.57;1.50;;;;;;;;;;5075504;28;20027;-87
2021/09/30 05:48:43;;;;;;;3.70;1.40;;;;;;;;;;5076064;28;20020;-87
2021/09/30 05:51:08;;;;;;;3.55;1.42;;;;;;;;;;5075623;28;20027;-87
2021/09/30 05:53:33;;;;;;;3.80;1.33;;;;;;;;;;5075542;28;20023;-87
2021/09/30 05:55:58;;;;;;;5.22;1.30;;;;;;;;;;5093467;28;20099;-87
2021/09/30 05:58:25;;;;;;;4.55;1.48;;;;;;;;;;5093186;28;20016;-87
2021/09/30 06:01:00;;;;;;;5.18;1.30;;;;;;;;;;5093868;28;20070;-86
2021/09/30 06:14:32;;;;;;;4.65;1.30;;;;;;;;;;5093331;28;20099;-86
2021/09/30 06:16:51;;;;;;;7.55;1.10;;;;;;;;;;5089364;28;20107;-87
2021/09/30 06:19:22;;;;;;;9.50;1.50;;;;;;;;;;5075179;28;20060;-86
2021/09/30 06:21:48;;;;;;;9.50;1.38;;;;;;;;;;5075161;28;20026;-87
2021/09/30 06:24:18;;;;;;;8.32;1.27;;;;;;;;;;5074820;28;20053;-86
2021/09/30 06:26:43;;;;;;;6.03;1.58;;;;;;;;;;5074517;28;20032;-87
2021/09/30 06:29:09;;;;;;;4.97;1.63;;;;;;;;;;5069876;28;20016;-86
2021/09/30 06:31:34;;;;;;;9.75;1.08;;;;;;;;;;5071913;28;20105;-87
2021/09/30 06:33:59;;;;;;;6.60;1.27;;;;;;;;;;5073356;28;20418;-87
2021/09/30 06:36:24;;;;;;;6.60;1.50;;;;;;;;;;5074557;28;20028;-87
2021/09/30 06:38:49;;;;;;;6.10;1.02;;;;;;;;;;5075634;28;20371;-86
2021/09/30 06:41:15;;;;;;;9.20;1.35;;;;;;;;;;5075387;28;20020;-86
2021/09/30 06:43:40;;;;;;;10.95;1.33;;;;;;;;;;5075791;28;20070;-87
2021/09/30 06:46:06;;;;;;;8.32;1.40;;;;;;;;;;5092987;28;20359;-87
2021/09/30 06:48:31;;;;;;;5.30;1.17;;;;;;;;;;5074998;28;20107;-86
2021/09/30 06:50:56;;;;;;;6.65;1.23;;;;;;;;;;5075348;28;20050;-87
2021/09/30 06:53:22;;;;;;;5.07;1.42;;;;;;;;;;5075057;28;20532;-86
2021/09/30 06:55:47;;;;;;;2.67;1.27;;;;;;;;;;5074716;28;20103;-87
2021/09/30 06:58:12;;;;;;;3.42;1.60;;;;;;;;;;5075289;28;20055;-86
2021/09/30 07:00:38;;;;;;;5.57;1.58;;;;;;;;;;5093181;28;20085;-86
2021/09/30 07:03:03;;;;;;;8.02;1.52;;;;;;;;;;5086138;28;20027;-86
2021/09/30 07:05:28;;;;;;;8.13;1.88;;;;;;;;;;5074662;28;20020;-87
2021/09/30 07:07:54;;;;;;;3.78;1.40;;;;;;;;;;5070862;28;20024;-86
2021/09/30 07:10:19;;;;;;;3.17;1.17;;;;;;;;;;5092336;28;20016;-86
2021/09/30 07:12:44;;;;;;;4.70;1.63;;;;;;;;;;5074408;28;20108;-86
2021/09/30 07:15:10;;;;;;;4.00;1.25;;;;;;;;;;5092768;28;20099;-86
2021/09/30 07:17:35;;;;;;;7.70;1.55;;;;;;;;;;5074489;28;20027;-86
2021/09/30 07:20:00;;;;;;;5.93;1.35;;;;;;;;;;5075135;28;20031;-86
2021/09/30 07:22:26;;;;;;;4.78;0.90;;;;;;;;;;5074879;28;20016;-86
2021/09/30 07:24:52;;;;;;;8.02;1.30;;;;;;;;;;5075001;28;20391;-87
2021/09/30 07:27:17;;;;;;;10.85;1.30;;;;;;;;;;5074626;28;20024;-86
2021/09/30 07:29:42;;;;;;;6.55;1.52;;;;;;;;;;5075061;28;20012;-87
2021/09/30 07:32:08;;;;;;;3.38;1.35;;;;;;;;;;5078391;28;20097;-87
2021/09/30 07:34:33;;;;;;;7.68;2.03;;;;;;;;;;5074726;28;20009;-87
2021/09/30 07:36:58;;;;;;;6.18;1.58;;;;;;;;;;5092370;28;20524;-87
2021/09/30 07:39:24;;;;;;;8.45;2.75;;;;;;;;;;5094259;28;20031;-87
2021/09/30 07:41:49;;;;;;;11.48;3.28;;;;;;;;;;5093128;28;20019;-87
2021/09/30 07:44:15;;;;;;;12.20;3.35;;;;;;;;;;5074100;28;20112;-86
2021/09/30 07:46:41;;;;;;;4.55;1.83;;;;;;;;;;5073753;28;20057;-87
2021/09/30 07:49:07;;;;;;;5.72;2.03;;;;;;;;;;5072252;28;20043;-87
2021/09/30 07:51:33;;;;;;;7.07;2.28;;;;;;;;;;5073652;28;20038;-87
2021/09/30 07:53:58;;;;;;;4.30;1.73;;;;;;;;;;5073944;28;20111;-87
2021/09/30 07:56:24;;;;;;;7.10;1.90;;;;;;;;;;5074041;28;20489;-86
2021/09/30 07:58:49;;;;;;;10.55;2.10;;;;;;;;;;5074275;28;20009;-87
2021/09/30 08:01:14;;;;;;;6.47;1.98;;;;;;;;;;5092068;28;20027;-87
2021/09/30 08:03:40;;;;;;;4.63;1.42;;;;;;;;;;5073530;28;20005;-86
2021/09/30 08:06:05;;;;;;;6.10;1.90;;;;;;;;;;5073829;28;20478;-86
2021/09/30 08:08:30;;;;;;;13.43;3.42;;;;;;;;;;5073858;28;20494;-86
2021/09/30 08:10:55;;;;;;;10.45;2.20;;;;;;;;;;5075382;28;20024;-86
2021/09/30 08:13:21;;;;;;;9.02;1.73;;;;;;;;;;5071502;28;20077;-86
2021/09/30 08:15:46;;;;;;;6.68;1.58;;;;;;;;;;5090333;28;20022;-86
2021/09/30 08:18:11;;;;;;;5.18;1.40;;;;;;;;;;5072598;28;20028;-87
2021/09/30 08:20:43;;;;;;;4.15;1.75;;;;;;;;;;5072831;28;20040;-87
2021/09/30 08:23:10;;;;;;;5.82;1.80;;;;;;;;;;5074045;28;20077;-87
2021/09/30 08:25:36;;;;;;;7.85;1.30;;;;;;;;;;5075998;28;20031;-87
2021/09/30 08:28:01;;;;;;;9.18;2.15;;;;;;;;;;5076523;28;20028;-87
2021/09/30 08:30:26;;;;;;;8.85;2.10;;;;;;;;;;5076710;28;20012;-86
2021/09/30 08:32:51;;;;;;;7.45;1.70;;;;;;;;;;5076788;28;20386;-86
2021/09/30 08:35:17;;;;;;;5.85;1.67;;;;;;;;;;5076439;28;20074;-86
2021/09/30 08:37:42;;;;;;;5.75;1.50;;;;;;;;;;5077226;28;20111;-87
2021/09/30 08:40:08;;;;;;;2.03;0.68;;;;;;;;;;5075662;28;20019;-89
2021/09/30 08:42:33;;;;;;;8.70;1.90;;;;;;;;;;5076431;28;20020;-88
2021/09/30 08:44:58;;;;;;;4.88;1.52;;;;;;;;;;5076636;28;20040;-88
2021/09/30 08:47:24;;;;;;;7.47;1.15;;;;;;;;;;5076522;28;20020;-88
2021/09/30 08:49:49;;;;;;;9.07;1.65;;;;;;;;;;5077525;28;20020;-88
2021/09/30 08:52:14;;;;;;;1.77;0.60;;;;;;;;;;5076533;28;20024;-88
2021/09/30 08:54:39;;;;;;;4.70;1.58;;;;;;;;;;5076155;28;20030;-88
2021/09/30 08:57:05;;;;;;;11.15;1.90;;;;;;;;;;5076456;28;20074;-89
2021/09/30 08:59:30;;;;;;;3.40;1.15;;;;;;;;;;5076158;28;20499;-89
2021/09/30 09:02:07;;;;;;;6.30;1.52;;;;;;;;;;5075898;28;20170;-89
2021/09/30 09:04:32;;;;;;;8.77;1.30;;;;;;;;;;5075545;28;20016;-87
2021/09/30 09:07:10;;;;;;;9.27;1.60;;;;;;;;;;5073429;28;20031;-87
2021/09/30 09:09:35;;;;;;;8.63;1.77;;;;;;;;;;5061901;28;20049;-87
2021/09/30 09:12:04;;;;;;;6.13;1.48;;;;;;;;;;5093934;27;20020;-87
2021/09/30 09:14:31;;;;;;;7.63;1.67;;;;;;;;;;5061009;28;20012;-86
2021/09/30 09:16:56;;;;;;;13.18;1.60;;;;;;;;;;5070130;28;20373;-86
2021/09/30 09:19:29;;;;;;;7.45;1.60;;;;;;;;;;5076503;28;20031;-86
2021/09/30 09:21:54;;;;;;;8.15;1.45;;;;;;;;;;5077002;28;20112;-86
2021/09/30 09:24:20;;;;;;;5.00;1.40;;;;;;;;;;5095156;28;20043;-85
2021/09/30 09:26:45;;;;;;;9.07;1.48;;;;;;;;;;5077687;28;20032;-85
2021/09/30 09:29:14;;;;;;;8.43;1.83;;;;;;;;;;5070809;28;20025;-85
2021/09/30 09:31:41;;;;;;;9.18;1.58;;;;;;;;;;5074771;28;20035;-85
2021/09/30 09:34:18;;;;;;;6.65;1.67;;;;;;;;;;5075648;28;20034;-85
2021/09/30 09:36:46;;;;;;;8.48;1.88;;;;;;;;;;5094661;28;20016;-84
2021/09/30 09:39:11;;;;;;;5.53;1.23;;;;;;;;;;5094263;28;20038;-84
2021/09/30 09:41:37;;;;;;;6.75;1.70;;;;;;;;;;5074042;28;20569;-84
2021/09/30 09:44:04;;;;;;;5.75;1.50;;;;;;;;;;5073601;28;20039;-84
2021/09/30 09:46:39;;;;;;;6.70;1.92;;;;;;;;;;5075690;28;20024;-84
2021/09/30 09:49:05;;;;;;;6.70;2.20;;;;;;;;;;5073572;28;20020;-84
2021/09/30 09:51:35;;;;;;;8.82;2.42;;;;;;;;;;5073467;28;20375;-84
2021/09/30 09:54:00;;;;;;;8.20;1.95;;;;;;;;;;5094179;28;20468;-84
2021/09/30 09:56:25;;;;;;;7.05;2.00;;;;;;;;;;5070674;28;20022;-85
2021/09/30 09:58:55;;;;;;;11.80;2.10;;;;;;;;;;5075571;28;20023;-84
2021/09/30 10:01:28;;;;;;;6.55;1.88;;;;;;;;;;5070653;28;20012;-84
2021/09/30 10:03:54;;;;;;;5.85;1.58;;;;;;;;;;5073162;28;20023;-84
2021/09/30 10:06:20;;;;;;;8.48;1.75;;;;;;;;;;5073167;28;20069;-85
2021/09/30 10:08:45;;;;;;;7.05;2.00;;;;;;;;;;5073018;28;20057;-83
2021/09/30 10:11:11;;;;;;;5.80;1.58;;;;;;;;;;5073190;28;20024;-84
2021/09/30 10:13:37;;;;;;;8.82;2.13;;;;;;;;;;5093096;28;20664;-83
2021/09/30 10:16:03;;;;;;;9.52;1.35;;;;;;;;;;5093659;28;20024;-84
2021/09/30 10:18:28;;;;;;;9.55;1.95;;;;;;;;;;5075982;28;20482;-84
2021/09/30 10:20:54;;;;;;;7.55;1.73;;;;;;;;;;5075640;28;20027;-84
2021/09/30 10:23:30;;;;;;;7.13;1.83;;;;;;;;;;5075996;28;20054;-84
2021/09/30 10:25:57;;;;;;;8.38;1.63;;;;;;;;;;5075500;28;20028;-84
2021/09/30 10:28:23;;;;;;;3.70;1.45;;;;;;;;;;5075481;28;20028;-84
2021/09/30 10:30:49;;;;;;;2.92;0.82;;;;;;;;;;5075632;28;20024;-85
2021/09/30 10:33:19;;;;;;;1.55;0.60;;;;;;;;;;5075902;28;20020;-84
2021/09/30 10:35:45;;;;;;;6.97;1.40;;;;;;;;;;5075665;28;20024;-83
2021/09/30 10:38:18;;;;;;;3.50;1.38;;;;;;;;;;5075488;28;20032;-84
2021/09/30 10:41:01;;;;;;;1.17;0.65;;;;;;;;;;5075769;28;20027;-84
2021/09/30 10:43:31;;;;;;;3.53;0.98;;;;;;;;;;5093579;28;20049;-84
2021/09/30 10:45:57;;;;;;;5.47;0.98;;;;;;;;;;5074527;28;20020;-84
2021/09/30 10:48:26;;;;;;;4.18;0.90;;;;;;;;;;5092848;28;20785;-84
2021/09/30 10:50:55;;;;;;;7.18;1.00;;;;;;;;;;5074770;28;20048;-84
2021/09/30 10:53:39;;;;;;;5.55;1.08;;;;;;;;;;5074879;28;20456;-84
2021/09/30 10:56:31;;;;;;;3.15;0.82;;;;;;;;;;5075320;28;20294;-84
2021/09/30 10:58:59;;;;;;;4.30;0.77;;;;;;;;;;5085098;28;20460;-84
2021/09/30 11:01:25;;;;;;;7.22;1.10;;;;;;;;;;5092693;28;20112;-84
2021/09/30 11:04:10;;;;;;;3.40;0.70;;;;;;;;;;5093635;28;20099;-84
2021/09/30 11:06:37;;;;;;;5.00;0.80;;;;;;;;;;5105653;28;20044;-84
2021/09/30 11:09:14;;;;;;;3.65;0.68;;;;;;;;;;5073916;28;20020;-84
2021/09/30 11:11:41;;;;;;;3.55;0.70;;;;;;;;;;5106085;28;20471;-85
2021/09/30 11:14:07;;;;;;;3.13;0.68;;;;;;;;;;5073473;28;20023;-84
2021/09/30 11:16:39;;;;;;;1.98;0.63;;;;;;;;;;5091977;28;20038;-84
2021/09/30 11:19:05;;;;;;;;;;;;;;;;;;5090492;28;20463;-84
2021/09/30 11:21:34;;;;;;;3.96;0.96;;;;;;;;;;5073997;28;20007;-85
2021/09/30 11:24:04;;;;;;;2.85;0.90;;;;;;;;;;5073584;28;20020;-84
2021/09/30 11:26:51;;;;;;;3.22;1.08;;;;;;;;;;5073488;28;20736;-84
2021/09/30 11:29:19;;;;;;;5.93;0.90;;;;;;;;;;5090723;28;20038;-84
2021/09/30 11:31:45;;;;;;;4.43;0.85;;;;;;;;;;5068566;28;20371;-84
2021/09/30 11:34:17;;;;;;;3.67;0.50;;;;;;;;;;5074806;28;20013;-84
2021/09/30 11:36:42;;;;;;;2.75;0.52;;;;;;;;;;5073995;28;20031;-85
2021/09/30 11:39:08;;;;;;;5.05;0.73;;;;;;;;;;5074076;28;20111;-84
2021/09/30 11:41:34;;;;;;;3.63;0.80;;;;;;;;;;5074082;28;20054;-85
2021/09/30 11:44:00;;;;;;;3.92;0.80;;;;;;;;;;5092714;28;20475;-85
2021/09/30 11:46:32;;;;;;;4.07;0.95;;;;;;;;;;5092621;28;20080;-83
2021/09/30 11:49:01;;;;;;;2.83;0.70;;;;;;;;;;5073982;28;20090;-84
2021/09/30 11:51:33;;;;;;;5.95;0.80;;;;;;;;;;5072932;28;20027;-84
2021/09/30 11:53:59;;;;;;;5.38;0.70;;;;;;;;;;5074665;28;20016;-85
2021/09/30 11:56:24;;;;;;;4.65;0.57;;;;;;;;;;5074576;28;20486;-84
2021/09/30 11:58:58;;;;;;;10.65;0.85;;;;;;;;;;5097014;28;20035;-84
2021/09/30 12:01:34;;;;;;;3.97;0.70;;;;;;;;;;5078083;28;20023;-84
2021/09/30 12:04:00;;;;;;;7.40;1.10;;;;;;;;;;5078717;28;20043;-84
2021/09/30 12:06:38;;;;;;;7.10;0.90;;;;;;;;;;5096126;28;20463;-84
2021/09/30 12:09:03;;;;;;;6.97;0.98;;;;;;;;;;5096275;28;20066;-84
2021/09/30 12:11:34;;;;;;;3.70;0.60;;;;;;;;;;5077880;28;20467;-84
2021/09/30 12:14:00;;;;;;;2.72;0.68;;;;;;;;;;5078027;28;20501;-84
2021/09/30 12:16:25;;;;;;;4.50;0.98;;;;;;;;;;5078222;28;20055;-84
2021/09/30 12:19:00;;;;;;;5.95;1.13;;;;;;;;;;5078301;28;20115;-84
2021/09/30 12:21:35;;;;;;;3.85;0.20;;;;;;;;;;5077705;28;20037;-84
2021/09/30 12:24:01;;;;;;;7.38;1.30;;;;;;;;;;5077316;28;20070;-84
2021/09/30 12:26:26;;;;;;;6.43;0.70;;;;;;;;;;5077824;28;20021;-84
2021/09/30 12:28:51;;;;;;;3.90;0.88;;;;;;;;;;5095733;28;20016;-84
2021/09/30 12:31:16;;;;;;;11.07;0.80;;;;;;;;;;5077572;28;20047;-84
2021/09/30 12:33:42;;;;;;;6.00;0.73;;;;;;;;;;5077929;28;20469;-85
2021/09/30 12:36:07;;;;;;;7.07;0.90;;;;;;;;;;5078036;28;20379;-85
2021/09/30 12:38:33;;;;;;;2.78;0.88;;;;;;;;;;5077342;28;20100;-85
2021/09/30 12:41:05;;;;;;;4.57;0.70;;;;;;;;;;5095941;28;20019;-85
2021/09/30 12:43:31;;;;;;;7.68;0.90;;;;;;;;;;5076881;28;20020;-85
2021/09/30 12:45:56;;;;;;;8.85;0.80;;;;;;;;;;5077322;28;20054;-84
2021/09/30 12:48:22;;;;;;;4.32;0.55;;;;;;;;;;5095586;28;20023;-84
2021/09/30 12:50:48;;;;;;;4.40;0.70;;;;;;;;;;5076693;28;20024;-84
2021/09/30 12:53:15;;;;;;;7.88;0.82;;;;;;;;;;5076849;28;20621;-84
2021/09/30 12:55:40;;;;;;;2.38;0.57;;;;;;;;;;5077464;28;20020;-84
2021/09/30 12:58:06;;;;;;;8.90;0.90;;;;;;;;;;5077333;28;20585;-84
2021/09/30 13:00:36;;;;;;;3.58;0.65;;;;;;;;;;5095190;28;20524;-84
2021/09/30 13:03:12;;;;;;;1.27;0.47;;;;;;;;;;5077639;28;20070;-85
2021/09/30 13:05:46;;;;;;;0.85;0.20;;;;;;;;;;5077344;28;20020;-85
2021/09/30 13:08:12;;;;;;;8.40;0.68;;;;;;;;;;5094214;28;20048;-84
2021/09/30 13:10:37;;;;;;;4.70;0.68;;;;;;;;;;5076506;28;20062;-84
2021/09/30 13:13:14;;;;;;;1.00;0.30;;;;;;;;;;5076058;28;20016;-85
2021/09/30 13:15:43;;;;;;;2.25;0.35;;;;;;;;;;5069742;28;20020;-85
2021/09/30 13:18:11;;;;;;;6.30;1.15;;;;;;;;;;5076165;28;20523;-85
2021/09/30 13:20:36;;;;;;;6.80;1.13;;;;;;;;;;5093043;28;20027;-84
2021/09/30 13:23:01;;;;;;;3.45;0.80;;;;;;;;;;5075828;28;20028;-84
2021/09/30 13:25:27;;;;;;;2.90;0.50;;;;;;;;;;5094757;28;20124;-85
2021/09/30 13:27:52;;;;;;;7.50;1.05;;;;;;;;;;5076020;28;20020;-84
2021/09/30 13:30:19;;;;;;;0.68;0.50;;;;;;;;;;5092047;28;20061;-85
2021/09/30 13:32:44;;;;;;;1.17;0.50;;;;;;;;;;5075766;28;20103;-84
2021/09/30 13:35:10;;;;;;;2.78;0.95;;;;;;;;;;5074936;28;20067;-86
2021/09/30 13:37:35;;;;;;;7.05;0.82;;;;;;;;;;5072793;28;20027;-85
2021/09/30 13:40:01;;;;;;;7.60;0.88;;;;;;;;;;5076352;28;20126;-85
2021/09/30 13:42:28;;;;;;;4.80;0.88;;;;;;;;;;5076717;28;20027;-85
2021/09/30 13:44:53;;;;;;;3.53;0.95;;;;;;;;;;5094540;28;20019;-84
2021/09/30 13:47:18;;;;;;;7.57;0.63;;;;;;;;;;5077224;28;20028;-84
2021/09/30 13:49:43;;;;;;;2.80;0.52;;;;;;;;;;5076218;28;20012;-85
2021/09/30 13:52:09;;;;;;;4.20;0.80;;;;;;;;;;5094147;28;20083;-85
2021/09/30 13:54:34;;;;;;;4.43;0.60;;;;;;;;;;5075671;28;20046;-85
2021/09/30 13:56:59;;;;;;;2.03;0.77;;;;;;;;;;5094252;28;20016;-85
2021/09/30 13:59:25;;;;;;;1.70;0.73;;;;;;;;;;5076064;28;20024;-84
2021/09/30 14:01:51;;;;;;;6.50;0.75;;;;;;;;;;5076703;28;20020;-84
2021/09/30 14:04:16;;;;;;;0.30;0.20;;;;;;;;;;5075743;28;20120;-85
2021/09/30 14:06:41;;;;;;;6.63;0.90;;;;;;;;;;5075650;28;20066;-84
2021/09/30 14:09:07;;;;;;;8.52;1.10;;;;;;;;;;5075940;28;20025;-84
2021/09/30 14:11:32;;;;;;;7.82;1.10;;;;;;;;;;5075744;28;20015;-84
2021/09/30 14:13:57;;;;;;;7.60;0.73;;;;;;;;;;5076418;28;20020;-85
2021/09/30 14:16:24;;;;;;;5.35;0.77;;;;;;;;;;5093949;28;20075;-84
2021/09/30 14:18:49;;;;;;;4.20;0.70;;;;;;;;;;5075612;28;20016;-84
2021/09/30 14:21:15;;;;;;;0.50;0.25;;;;;;;;;;5075458;28;20043;-85
2021/09/30 14:23:40;;;;;;;4.10;0.73;;;;;;;;;;5093692;28;20077;-85
2021/09/30 14:26:05;;;;;;;7.53;1.30;;;;;;;;;;5075898;28;20016;-85
2021/09/30 14:28:31;;;;;;;2.42;0.63;;;;;;;;;;5076012;28;20043;-85
2021/09/30 14:30:56;;;;;;;2.28;0.63;;;;;;;;;;5074555;28;20380;-84
2021/09/30 14:33:25;;;;;;;4.63;0.80;;;;;;;;;;5094003;28;20035;-84
2021/09/30 14:35:51;;;;;;;3.58;1.27;;;;;;;;;;5075666;28;20353;-84
2021/09/30 14:38:16;;;;;;;9.93;0.80;;;;;;;;;;5094001;28;20020;-84
2021/09/30 14:40:48;;;;;;;6.40;1.02;;;;;;;;;;5075483;28;20388;-85
2021/09/30 14:43:14;;;;;;;2.58;0.50;;;;;;;;;;5074486;28;20032;-84
2021/09/30 14:45:39;;;;;;;1.90;0.70;;;;;;;;;;5076116;28;20053;-84
2021/09/30 14:48:04;;;;;;;3.08;0.45;;;;;;;;;;5070844;28;20379;-84
2021/09/30 14:50:29;;;;;;;6.72;0.60;;;;;;;;;;5071787;28;20008;-85
2021/09/30 14:52:54;;;;;;;5.32;0.63;;;;;;;;;;5074684;28;20044;-84
2021/09/30 14:55:20;;;;;;;4.40;0.50;;;;;;;;;;5075024;28;20020;-85
2021/09/30 14:57:45;;;;;;;5.03;0.80;;;;;;;;;;5077888;28;20458;-85
2021/09/30 15:00:14;;;;;;;5.93;0.80;;;;;;;;;;5075003;28;20072;-85
2021/09/30 15:02:39;;;;;;;3.40;0.75;;;;;;;;;;5093411;28;20081;-85
2021/09/30 15:05:05;;;;;;;1.77;0.60;;;;;;;;;;5075019;28;20031;-84
2021/09/30 15:07:30;;;;;;;2.22;0.75;;;;;;;;;;5108636;28;20093;-85
2021/09/30 15:09:55;;;;;;;2.85;0.40;;;;;;;;;;5074998;28;20031;-85
2021/09/30 15:12:20;;;;;;;2.17;0.63;;;;;;;;;;5075047;28;20520;-85
2021/09/30 15:14:45;;;;;;;4.47;1.00;;;;;;;;;;5075926;28;20031;-85
2021/09/30 15:17:33;;;;;;;7.50;1.10;;;;;;;;;;5074823;28;20031;-84
2021/09/30 15:22:36;;;;;;;4.00;1.20;;;;;;;;;;5092954;28;20024;-84
2021/09/30 15:25:01;;;;;;;6.38;1.00;;;;;;;;;;5074746;28;20024;-84
2021/09/30 15:27:27;;;;;;;5.45;1.20;;;;;;;;;;5092778;28;20103;-84
2021/09/30 15:29:52;;;;;;;14.65;2.90;;;;;;;;;;5074797;28;20012;-84
2021/09/30 15:32:17;;;;;;;15.98;3.20;;;;;;;;;;5073630;28;20051;-84
2021/09/30 15:34:42;;;;;;;11.27;1.90;;;;;;;;;;5075138;28;20107;-84
2021/09/30 15:37:08;;;;;;;10.65;1.73;;;;;;;;;;5075001;28;20040;-84
2021/09/30 15:39:33;;;;;;;6.35;1.15;;;;;;;;;;5074239;28;20023;-84
2021/09/30 15:41:59;;;;;;;9.80;1.20;;;;;;;;;;5074745;28;20027;-84
2021/09/30 15:44:24;;;;;;;5.75;1.20;;;;;;;;;;5092603;28;20030;-84
2021/09/30 15:46:49;;;;;;;6.78;2.15;;;;;;;;;;5074654;28;20020;-84
2021/09/30 15:49:15;;;;;;;3.75;1.15;;;;;;;;;;5074463;28;20028;-84
2021/09/30 15:51:41;;;;;;;3.53;0.98;;;;;;;;;;5073308;28;20024;-84
2021/09/30 15:54:06;;;;;;;5.60;1.48;;;;;;;;;;5092197;28;20024;-84
2021/09/30 15:56:31;;;;;;;7.05;0.88;;;;;;;;;;5092215;28;20489;-84
2021/09/30 15:58:56;;;;;;;5.25;0.93;;;;;;;;;;5074017;28;20483;-84
2021/09/30 16:01:21;;;;;;;8.68;0.93;;;;;;;;;;5074124;28;20460;-84
2021/09/30 16:03:47;;;;;;;5.88;0.98;;;;;;;;;;5074230;28;20016;-84
2021/09/30 16:06:12;;;;;;;2.78;0.75;;;;;;;;;;5074449;28;20713;-84
2021/09/30 16:08:37;;;;;;;2.58;0.85;;;;;;;;;;5091696;28;20015;-84
2021/09/30 16:11:03;;;;;;;4.65;1.23;;;;;;;;;;5092433;28;20145;-84
2021/09/30 16:13:28;;;;;;;5.68;1.30;;;;;;;;;;5076885;28;20016;-84
2021/09/30 16:15:54;;;;;;;6.78;0.90;;;;;;;;;;5092319;28;20020;-84
2021/09/30 16:18:19;;;;;;;6.80;0.98;;;;;;;;;;5092522;28;20028;-84
2021/09/30 16:20:44;;;;;;;9.00;0.90;;;;;;;;;;5073955;28;20044;-84
2021/09/30 16:23:09;;;;;;;2.13;0.95;;;;;;;;;;5074421;28;20016;-84
2021/09/30 16:25:35;;;;;;;6.47;0.80;;;;;;;;;;5073858;28;20024;-84
2021/09/30 16:28:00;;;;;;;4.57;0.80;;;;;;;;;;5092226;28;20024;-84
2021/09/30 16:30:26;;;;;;;6.63;0.90;;;;;;;;;;5073929;28;20028;-84
2021/09/30 16:32:51;;;;;;;6.95;1.02;;;;;;;;;;5074174;28;20027;-84
2021/09/30 16:35:16;;;;;;;14.48;1.02;;;;;;;;;;5074464;28;20015;-84
2021/09/30 16:37:41;;;;;;;7.00;0.90;;;;;;;;;;5091995;28;20016;-84
2021/09/30 16:40:07;;;;;;;4.35;1.10;;;;;;;;;;5074457;28;20463;-84
2021/09/30 16:42:33;;;;;;;8.75;1.10;;;;;;;;;;5073943;28;20016;-84
2021/09/30 16:45:01;;;;;;;5.88;1.08;;;;;;;;;;5077198;28;20027;-84
2021/09/30 16:47:26;;;;;;;14.63;1.08;;;;;;;;;;5104959;28;20525;-84
2021/09/30 16:49:52;;;;;;;7.53;1.10;;;;;;;;;;5071031;28;20020;-84
2021/09/30 16:52:17;;;;;;;5.22;1.02;;;;;;;;;;5077126;28;20012;-84
2021/09/30 16:54:42;;;;;;;6.38;1.00;;;;;;;;;;5095200;28;20074;-84
2021/09/30 16:57:08;;;;;;;5.35;0.82;;;;;;;;;;5095761;28;20463;-84
2021/09/30 16:59:33;;;;;;;9.82;1.50;;;;;;;;;;5076392;28;20028;-84
2021/09/30 17:01:58;;;;;;;3.60;1.00;;;;;;;;;;5089134;28;20039;-84
2021/09/30 17:04:24;;;;;;;5.43;0.93;;;;;;;;;;5089166;28;20028;-84
2021/09/30 17:06:49;;;;;;;8.27;0.90;;;;;;;;;;5071887;28;20028;-84
2021/09/30 17:09:25;;;;;;;5.00;0.90;;;;;;;;;;5071421;28;20016;-84
2021/09/30 17:11:50;;;;;;;9.25;1.20;;;;;;;;;;5108651;27;20016;-84
2021/09/30 17:14:15;;;;;;;6.47;0.90;;;;;;;;;;5094912;28;20386;-84
2021/09/30 17:16:40;;;;;;;6.13;0.73;;;;;;;;;;5077991;28;20016;-84
2021/09/30 17:19:06;;;;;;;10.15;1.20;;;;;;;;;;5106046;27;20023;-84
2021/09/30 17:21:31;;;;;;;5.75;1.00;;;;;;;;;;5073675;28;20077;-84
2021/09/30 17:23:56;;;;;;;4.97;1.08;;;;;;;;;;5078493;28;20086;-84
2021/09/30 17:26:22;;;;;;;9.20;1.30;;;;;;;;;;5088460;28;20028;-84